Time;durP1;ratioP1;P1;durP2;ratioP2;P2;SDS_P1;SDS_P2;PMS_P1;PMS_P2;Temp;Humidity;BMP_temperature;BMP_pressure;BME280_temperature;BME280_humidity;BME280_pressure;Samples;Min_cycle;Max_cycle;Signal;HPM_P1;HPM_P2
2023/08/03 00:02:22;;;;;;;;;;;21.10;64.10;;;17.45;95.92;94443.47;4971507;28;20029;-45
2023/08/03 00:04:47;;;;;;;;;;;21.10;64.10;;;17.40;96.55;94446.41;4985030;23;19933;-50
2023/08/03 00:07:13;;;;;;;;;;;21.10;63.90;;;17.34;97.83;94451.97;4987734;28;20338;-50
2023/08/03 00:09:40;;;;;;;;;;;21.00;63.80;;;17.30;99.42;94444.94;4989835;28;20036;-50
2023/08/03 00:12:07;;;;;;;;;;;21.00;63.80;;;17.24;99.48;94438.97;4979672;28;19909;-51
2023/08/03 00:14:32;;;;;;;;;;;21.00;63.70;;;17.21;100.00;94441.53;4991291;28;19913;-47
2023/08/03 00:16:58;;;;;;;;;;;20.90;63.50;;;17.10;99.53;94438.47;4992629;28;19952;-49
2023/08/03 00:19:24;;;;;;;;;;;20.90;63.60;;;17.07;97.71;94423.78;4991971;28;20426;-54
2023/08/03 00:21:49;;;;;;;;;;;20.90;63.50;;;17.12;96.17;94430.88;4988134;28;19910;-49
2023/08/03 00:24:15;;;;;;;;;;;20.80;63.60;;;17.16;96.60;94439.84;4984022;28;19913;-50
2023/08/03 00:26:41;;;;;;;;;;;20.80;63.80;;;17.16;97.48;94441.75;4992592;28;20008;-47
2023/08/03 00:29:07;;;;;;;;;;;20.90;63.80;;;17.10;97.21;94427.72;4999275;28;20000;-46
2023/08/03 00:31:32;;;;;;;;;;;20.80;63.60;;;17.09;95.26;94426.94;4997936;28;20025;-47
2023/08/03 00:33:58;;;;;;;;;;;20.80;63.60;;;17.09;95.83;94437.69;4999107;28;20004;-46
2023/08/03 00:36:24;;;;;;;;;;;20.80;63.50;;;17.06;95.98;94424.91;4986113;28;19909;-46
2023/08/03 00:38:49;;;;;;;;;;;20.80;63.50;;;17.03;96.89;94430.19;4997947;28;20330;-49
2023/08/03 00:41:15;;;;;;;;;;;20.80;63.50;;;16.99;97.25;94429.28;4981991;28;19960;-52
2023/08/03 00:43:42;;;;;;;;;;;20.80;63.40;;;16.96;97.62;94432.63;4981285;28;19960;-48
2023/08/03 00:46:08;;;;;;;;;;;20.70;63.30;;;16.90;98.83;94440.13;4998604;28;19947;-53
2023/08/03 00:48:34;;;;;;;;;;;20.70;63.40;;;16.86;99.36;94440.00;4999093;28;19916;-47
2023/08/03 00:50:59;;;;;;;;;;;20.60;63.30;;;16.80;99.76;94438.63;4997870;28;19909;-50
2023/08/03 00:53:25;;;;;;;;;;;20.60;64.20;;;16.76;100.00;94439.63;4999079;28;19996;-48
2023/08/03 00:55:51;;;;;;;;;;;20.60;63.50;;;16.72;100.00;94449.44;4994162;28;19910;-48
2023/08/03 00:58:17;;;;;;;;;;;20.50;63.40;;;16.68;100.00;94452.00;4979546;28;19909;-48
2023/08/03 01:00:43;;;;;;;;;;;20.50;63.40;;;16.55;100.00;94447.69;4996513;28;19914;-50
2023/08/03 01:03:08;;;;;;;;;;;20.40;63.30;;;16.46;100.00;94458.53;4997453;28;19910;-51
2023/08/03 01:05:34;;;;;;;;;;;20.30;63.20;;;16.34;100.00;94453.06;4991448;28;20376;-47
2023/08/03 01:08:00;;;;;;;;;;;20.30;63.30;;;16.28;100.00;94454.38;4996437;28;19909;-50
2023/08/03 01:10:28;;;;;;;;;;;20.20;63.20;;;16.21;100.00;94446.06;4985978;28;19917;-49
2023/08/03 01:12:56;;;;;;;;;;;20.10;63.30;;;16.10;100.00;94459.88;4985936;28;19909;-49
2023/08/03 01:15:22;;;;;;;;;;;20.00;63.20;;;16.01;100.00;94458.34;4981398;28;20407;-49
2023/08/03 01:17:48;;;;;;;;;;;20.00;63.20;;;15.89;100.00;94449.13;4998354;28;20378;-47
2023/08/03 01:20:20;;;;;;;;;;;19.90;63.20;;;15.81;100.00;94459.91;5011660;28;20007;-48
2023/08/03 01:22:46;;;;;;;;;;;19.80;63.20;;;15.71;100.00;94463.75;4987609;28;19964;-47
2023/08/03 01:25:13;;;;;;;;;;;19.70;63.20;;;15.60;100.00;94465.97;4998589;28;19917;-49
2023/08/03 01:27:38;;;;;;;;;;;19.60;63.10;;;15.49;100.00;94454.81;4997499;28;19914;-51
2023/08/03 01:30:05;;;;;;;;;;;19.60;63.20;;;15.40;100.00;94472.84;4998537;28;19910;-46
2023/08/03 01:32:32;;;;;;;;;;;19.50;63.10;;;15.32;100.00;94476.34;4997683;28;20323;-48
2023/08/03 01:34:59;;;;;;;;;;;19.40;63.10;;;15.19;100.00;94482.69;4982096;28;19941;-48
2023/08/03 01:37:26;;;;;;;;;;;19.30;63.10;;;15.11;100.00;94475.47;4988204;28;20000;-53
2023/08/03 01:39:52;;;;;;;;;;;19.20;63.10;;;15.04;100.00;94478.63;4978377;28;19917;-50
2023/08/03 01:42:17;;;;;;;;;;;19.10;63.20;;;14.93;100.00;94483.53;4995315;28;19936;-50
2023/08/03 01:44:47;;;;;;;;;;;19.00;63.20;;;14.82;100.00;94490.31;4983840;28;20368;-46
2023/08/03 01:47:13;;;;;;;;;;;18.90;63.00;;;14.61;100.00;94494.78;4976139;28;19932;-46
2023/08/03 01:49:38;;;;;;;;;;;18.80;63.00;;;14.46;100.00;94485.28;4989457;28;20368;-47
2023/08/03 01:52:04;;;;;;;;;;;18.70;63.00;;;14.37;100.00;94498.66;4986604;28;19910;-48
2023/08/03 01:54:30;;;;;;;;;;;18.60;63.00;;;14.20;100.00;94499.47;4991340;28;20379;-46
2023/08/03 01:56:55;;;;;;;;;;;18.40;63.00;;;14.08;100.00;94510.00;4993996;28;19909;-50
2023/08/03 01:59:21;;;;;;;;;;;18.30;63.10;;;13.97;100.00;94514.81;4995174;28;19960;-52
2023/08/03 02:01:47;;;;;;;;;;;18.30;63.20;;;13.89;100.00;94515.63;4993884;28;19971;-47
2023/08/03 02:04:16;;;;;;;;;;;18.10;63.20;;;13.85;100.00;94522.66;4991501;28;19910;-46
2023/08/03 02:06:51;;;;;;;;;;;18.00;63.30;;;13.70;100.00;94533.81;4986056;28;19914;-47
2023/08/03 02:09:17;;;;;;;;;;;17.90;63.40;;;13.65;100.00;94521.34;4989469;28;19909;-47
2023/08/03 02:11:43;;;;;;;;;;;17.80;63.50;;;13.63;100.00;94523.53;4995003;28;19952;-47
2023/08/03 02:14:09;;;;;;;;;;;17.80;63.70;;;13.61;100.00;94517.72;4993666;28;19932;-48
2023/08/03 02:16:35;;;;;;;;;;;17.70;63.70;;;13.54;100.00;94512.81;4994867;28;20380;-47
2023/08/03 02:19:01;;;;;;;;;;;17.60;63.80;;;13.50;100.00;94514.50;4994827;28;19909;-47
2023/08/03 02:21:27;;;;;;;;;;;17.60;63.90;;;13.48;100.00;94518.63;4983716;28;19914;-51
2023/08/03 02:23:53;;;;;;;;;;;17.60;64.00;;;13.48;100.00;94513.28;4979238;28;20368;-48
2023/08/03 02:26:19;;;;;;;;;;;17.50;64.10;;;13.43;100.00;94512.28;4993689;28;19917;-47
2023/08/03 02:28:45;;;;;;;;;;;17.50;64.20;;;13.38;100.00;94517.78;4994697;28;20052;-51
2023/08/03 02:31:10;;;;;;;;;;;17.50;64.10;;;13.40;100.00;94528.16;4994671;28;19955;-46
2023/08/03 02:33:36;;;;;;;;;;;17.50;65.10;;;13.42;100.00;94520.63;4989614;28;19955;-47
2023/08/03 02:36:02;;;;;;;;;;;17.50;64.50;;;13.40;100.00;94520.94;4985372;28;19919;-45
2023/08/03 02:38:28;;;;;;;;;;;17.50;64.60;;;13.41;100.00;94517.19;4977039;28;19909;-48
2023/08/03 02:40:57;;;;;;;;;;;17.50;64.60;;;13.42;100.00;94526.78;4985363;28;19925;-49
2023/08/03 02:43:24;;;;;;;;;;;17.50;64.60;;;13.39;100.00;94519.34;4994407;28;19909;-48
2023/08/03 02:45:49;;;;;;;;;;;17.50;64.40;;;13.30;100.00;94531.91;4993389;28;20043;-49
2023/08/03 02:48:15;;;;;;;;;;;17.40;64.20;;;13.23;100.00;94530.75;4977124;28;19918;-46
2023/08/03 02:50:41;;;;;;;;;;;17.40;64.10;;;13.19;100.00;94536.69;4981711;28;19916;-47
2023/08/03 02:53:06;;;;;;;;;;;17.40;64.10;;;13.13;100.00;94543.25;4983677;28;20388;-51
2023/08/03 02:55:32;;;;;;;;;;;17.30;64.00;;;12.99;100.00;94547.88;4992091;28;20102;-46
2023/08/03 02:57:58;;;;;;;;;;;17.20;64.00;;;12.92;100.00;94539.50;4989022;28;19917;-46
2023/08/03 03:00:23;;;;;;;;;;;17.20;64.10;;;12.85;100.00;94547.94;4993229;28;19960;-47
2023/08/03 03:02:49;;;;;;;;;;;17.10;64.10;;;12.85;100.00;94552.47;4988168;28;19910;-47
2023/08/03 03:05:15;;;;;;;;;;;17.00;64.10;;;12.81;100.00;94554.19;4992951;28;20451;-48
2023/08/03 03:07:41;;;;;;;;;;;17.00;64.10;;;12.75;100.00;94550.84;4992276;28;20002;-49
2023/08/03 03:10:07;;;;;;;;;;;16.90;64.20;;;12.68;100.00;94550.47;4992918;28;19909;-51
2023/08/03 03:12:32;;;;;;;;;;;16.80;64.10;;;12.60;100.00;94548.53;4979715;28;20431;-47
2023/08/03 03:14:58;;;;;;;;;;;16.80;64.30;;;12.56;100.00;94547.53;4992147;28;19916;-47
2023/08/03 03:17:24;;;;;;;;;;;16.70;64.30;;;12.46;100.00;94565.38;4992862;28;19910;-46
2023/08/03 03:19:49;;;;;;;;;;;16.70;64.40;;;12.48;100.00;94570.44;4992032;28;19909;-49
2023/08/03 03:22:15;;;;;;;;;;;16.60;64.50;;;12.48;100.00;94578.44;4979282;28;19955;-50
2023/08/03 03:24:41;;;;;;;;;;;16.60;64.60;;;12.46;100.00;94581.41;4992861;28;19910;-50
2023/08/03 03:27:07;;;;;;;;;;;16.60;64.70;;;12.45;100.00;94587.06;4986520;28;20364;-50
2023/08/03 03:29:32;;;;;;;;;;;16.60;64.80;;;12.37;100.00;94582.41;4992779;28;19924;-45
2023/08/03 03:31:58;;;;;;;;;;;16.60;64.80;;;12.30;100.00;94598.06;4991792;28;19909;-48
2023/08/03 03:34:24;;;;;;;;;;;16.50;64.70;;;12.32;100.00;94593.22;4982256;28;19914;-52
2023/08/03 03:36:50;;;;;;;;;;;16.50;64.70;;;12.29;100.00;94588.47;4989420;28;20050;-46
2023/08/03 03:39:16;;;;;;;;;;;16.40;64.70;;;12.26;100.00;94579.19;4981762;28;19909;-46
2023/08/03 03:41:41;;;;;;;;;;;16.40;64.70;;;12.22;100.00;94587.00;4989568;28;19939;-48
2023/08/03 03:44:07;;;;;;;;;;;16.40;64.80;;;12.18;100.00;94595.88;4991478;28;19917;-48
2023/08/03 03:46:33;;;;;;;;;;;16.30;64.70;;;12.15;100.00;94609.81;4992440;28;19913;-47
2023/08/03 03:48:58;;;;;;;;;;;16.30;64.80;;;12.17;100.00;94607.66;4992543;28;19910;-48
2023/08/03 03:51:24;;;;;;;;;;;16.30;65.00;;;12.19;100.00;94608.94;4987070;28;19921;-51
2023/08/03 03:53:50;;;;;;;;;;;16.40;65.30;;;12.23;100.00;94617.16;4982177;28;20003;-53
2023/08/03 03:56:16;;;;;;;;;;;16.40;65.30;;;12.33;100.00;94621.50;4982281;28;19909;-51
2023/08/03 03:58:41;;;;;;;;;;;16.40;65.50;;;12.44;100.00;94622.84;4992375;28;19959;-49
2023/08/03 04:01:07;;;;;;;;;;;16.50;65.70;;;12.55;100.00;94629.56;4985520;28;19949;-52
2023/08/03 04:03:33;;;;;;;;;;;16.60;65.80;;;12.73;100.00;94627.84;4985210;28;20399;-49
2023/08/03 04:05:58;;;;;;;;;;;16.70;65.90;;;12.83;100.00;94624.94;4991759;28;19917;-47
2023/08/03 04:08:24;;;;;;;;;;;16.80;65.90;;;12.91;100.00;94636.78;4990915;28;20346;-49
2023/08/03 04:10:50;;;;;;;;;;;16.90;65.70;;;12.99;100.00;94644.09;4978773;28;19910;-46
2023/08/03 04:13:15;;;;;;;;;;;17.00;65.60;;;13.07;100.00;94626.56;4991669;28;20003;-49
2023/08/03 04:15:41;;;;;;;;;;;17.10;65.60;;;13.12;100.00;94627.22;4975873;28;20406;-47
2023/08/03 04:18:07;;;;;;;;;;;17.10;65.50;;;13.16;100.00;94622.06;4992230;28;20003;-47
2023/08/03 04:20:32;;;;;;;;;;;17.20;65.30;;;13.18;100.00;94622.56;4990513;28;19971;-47
2023/08/03 04:22:58;;;;;;;;;;;17.20;65.20;;;13.20;100.00;94626.50;4988359;28;19932;-54
2023/08/03 04:25:24;;;;;;;;;;;17.30;65.10;;;13.26;100.00;94624.53;4978181;28;19917;-46
2023/08/03 04:27:50;;;;;;;;;;;17.30;65.00;;;13.36;100.00;94639.53;4972635;28;19910;-47
2023/08/03 04:30:15;;;;;;;;;;;17.40;65.20;;;13.44;99.74;94633.44;4972502;28;20353;-49
2023/08/03 04:32:41;;;;;;;;;;;17.50;65.20;;;13.52;98.66;94631.94;4981306;28;19948;-48
2023/08/03 04:35:09;;;;;;;;;;;17.60;65.10;;;13.60;98.18;94633.84;4991606;28;19909;-49
2023/08/03 04:37:35;;;;;;;;;;;17.60;65.00;;;13.71;95.87;94637.88;4991191;28;19920;-47
2023/08/03 04:40:01;;;;;;;;;;;17.80;65.00;;;13.80;96.08;94633.34;4991852;28;19959;-47
2023/08/03 04:42:27;;;;;;;;;;;17.90;64.90;;;13.86;95.61;94634.78;4991487;28;19910;-49
2023/08/03 04:44:52;;;;;;;;;;;18.00;64.70;;;13.93;94.47;94634.34;4990959;28;19910;-50
2023/08/03 04:47:18;;;;;;;;;;;18.10;64.60;;;14.02;93.83;94640.53;4992068;28;19952;-47
2023/08/03 04:49:44;;;;;;;;;;;18.10;64.40;;;14.07;93.97;94637.72;4990261;28;20400;-50
2023/08/03 04:52:10;;;;;;;;;;;18.20;64.20;;;14.15;94.44;94651.44;4983086;28;19916;-48
2023/08/03 04:54:35;;;;;;;;;;;18.30;64.10;;;14.18;95.96;94654.31;4986932;28;20090;-48
2023/08/03 04:57:01;;;;;;;;;;;18.40;64.00;;;14.20;97.69;94652.13;4986878;28;19939;-48
2023/08/03 04:59:27;;;;;;;;;;;18.40;63.80;;;14.21;98.26;94656.34;4982975;28;19909;-46
2023/08/03 05:01:53;;;;;;;;;;;18.50;63.70;;;14.24;98.26;94660.31;4984077;28;19952;-52
2023/08/03 05:04:18;;;;;;;;;;;18.60;63.60;;;14.32;98.33;94662.22;4980481;28;19922;-46
2023/08/03 05:06:44;;;;;;;;;;;18.70;63.60;;;14.38;94.20;94669.00;4985290;28;19913;-46
2023/08/03 05:09:10;;;;;;;;;;;18.70;63.50;;;14.47;92.89;94661.78;4982691;28;19909;-50
2023/08/03 05:11:36;;;;;;;;;;;18.80;63.40;;;14.54;90.61;94656.00;4978568;28;19944;-48
2023/08/03 05:14:01;;;;;;;;;;;18.80;63.40;;;14.64;89.00;94663.78;4986214;28;19913;-47
2023/08/03 05:16:28;;;;;;;;;;;18.90;63.30;;;14.78;88.73;94667.09;4982076;28;19909;-48
2023/08/03 05:18:54;;;;;;;;;;;19.10;63.30;;;15.11;88.58;94674.72;4984655;28;19909;-53
2023/08/03 05:21:20;;;;;;;;;;;19.30;63.10;;;15.39;83.23;94675.19;4987818;28;19944;-48
2023/08/03 05:23:46;;;;;;;;;;;19.60;62.90;;;15.54;81.00;94670.44;4985962;28;19916;-47
2023/08/03 05:26:12;;;;;;;;;;;19.80;62.70;;;15.62;80.75;94672.34;4978459;28;19913;-47
2023/08/03 05:28:38;;;;;;;;;;;19.90;62.30;;;15.76;82.60;94674.84;4986419;28;19952;-48
2023/08/03 05:31:05;;;;;;;;;;;20.00;62.00;;;15.82;79.86;94671.69;4981825;28;20287;-48
2023/08/03 05:33:35;;;;;;;;;;;20.10;61.60;;;15.93;79.16;94672.94;4982558;28;19916;-46
2023/08/03 05:36:02;;;;;;;;;;;20.20;61.30;;;16.18;78.93;94676.66;4988597;28;19916;-49
2023/08/03 05:38:28;;;;;;;;;;;20.50;60.90;;;16.38;76.75;94675.13;4985888;28;19955;-48
2023/08/03 05:40:54;;;;;;;;;;;20.80;60.50;;;16.65;74.92;94681.19;4981472;28;19933;-48
2023/08/03 05:43:26;;;;;;;;;;;21.00;60.00;;;16.85;72.78;94676.97;4983302;28;20420;-47
2023/08/03 05:46:02;;;;;;;;;;;21.20;59.70;;;17.07;72.60;94681.28;4987312;28;19952;-49
2023/08/03 05:48:30;;;;;;;;;;;21.50;59.30;;;17.14;68.66;94670.00;4988293;28;19910;-48
2023/08/03 05:50:57;;;;;;;;;;;21.70;58.90;;;17.27;68.18;94682.41;4981465;28;19925;-53
2023/08/03 05:53:23;;;;;;;;;;;21.90;57.90;;;17.33;66.01;94687.28;4988593;28;20279;-46
2023/08/03 05:55:49;;;;;;;;;;;22.00;57.00;;;17.48;65.84;94685.06;5008127;28;20024;-46
2023/08/03 05:58:17;;;;;;;;;;;22.20;56.40;;;17.57;64.83;94689.28;4984944;28;20028;-46
2023/08/03 06:00:48;;;;;;;;;;;22.40;55.40;;;17.67;63.69;94669.22;4990886;28;20003;-50
2023/08/03 06:03:17;;;;;;;;;;;22.50;54.70;;;17.78;63.24;94683.09;4989649;28;20386;-52
2023/08/03 06:05:46;;;;;;;;;;;22.70;54.10;;;17.83;62.36;94674.00;4978914;28;19918;-53
2023/08/03 06:08:24;;;;;;;;;;;22.80;53.40;;;18.00;62.19;94682.72;4988106;28;20299;-48
2023/08/03 06:10:56;;;;;;;;;;;23.00;53.00;;;18.07;62.00;94684.88;4981099;28;20348;-48
2023/08/03 06:13:33;;;;;;;;;;;23.10;52.40;;;18.25;60.78;94680.06;4992714;28;20431;-50
2023/08/03 06:16:08;;;;;;;;;;;23.30;52.20;;;18.34;61.86;94691.56;4985426;28;20001;-50
2023/08/03 06:18:48;;;;;;;;;;;23.40;51.50;;;18.42;60.24;94692.56;5002342;28;19914;-49
2023/08/03 06:21:16;;;;;;;;;;;23.60;51.10;;;18.53;60.18;94696.41;4976168;28;19914;-49
2023/08/03 06:23:48;;;;;;;;;;;23.70;50.60;;;18.66;59.24;94691.78;4987318;28;19921;-48
2023/08/03 06:26:17;;;;;;;;;;;23.90;50.60;;;18.80;59.65;94699.56;4985204;28;19931;-47
2023/08/03 06:28:45;;;;;;;;;;;24.00;50.10;;;18.87;59.26;94705.22;4981109;28;19964;-52
2023/08/03 06:31:18;;;;;;;;;;;24.20;49.60;;;19.01;58.88;94704.84;4995968;28;19948;-49
2023/08/03 06:33:46;;;;;;;;;;;24.40;49.40;;;18.99;58.21;94710.59;4992369;28;19910;-49
2023/08/03 06:36:23;;;;;;;;;;;24.50;48.80;;;19.25;59.46;94699.41;4980941;28;19914;-47
2023/08/03 06:38:49;;;;;;;;;;;24.60;48.70;;;19.32;57.98;94704.22;4983653;28;20017;-47
2023/08/03 06:41:15;;;;;;;;;;;24.80;48.50;;;19.29;57.15;94697.59;4987428;28;20610;-46
2023/08/03 06:43:41;;;;;;;;;;;24.90;47.90;;;19.53;58.53;94699.47;4982202;28;19910;-47
2023/08/03 06:46:07;;;;;;;;;;;25.10;47.80;;;19.64;56.23;94702.47;4980665;28;19910;-49
2023/08/03 06:48:34;;;;;;;;;;;25.20;47.40;;;19.41;55.88;94716.47;4984368;28;20299;-47
2023/08/03 06:51:02;;;;;;;;;;;25.30;46.40;;;19.48;55.87;94701.59;4986096;28;20364;-46
2023/08/03 06:53:28;;;;;;;;;;;25.40;45.80;;;19.68;56.03;94714.19;4982989;28;19979;-47
2023/08/03 06:55:54;;;;;;;;;;;25.50;45.80;;;19.55;55.36;94723.41;4992365;28;19932;-48
2023/08/03 06:58:21;;;;;;;;;;;25.50;45.10;;;19.59;56.28;94718.91;4983176;28;19909;-47
2023/08/03 07:00:47;;;;;;;;;;;25.60;44.60;;;19.95;55.00;94714.53;5005406;28;19960;-46
2023/08/03 07:03:13;;;;;;;;;;;25.70;44.90;;;19.95;56.07;94722.63;4981267;28;21226;-51
2023/08/03 07:05:40;;;;;;;;;;;25.90;44.70;;;19.91;54.40;94724.44;4987514;28;19925;-51
2023/08/03 07:08:07;;;;;;;;;;;25.90;44.30;;;20.15;54.06;94718.94;4987214;28;19924;-50
2023/08/03 07:10:35;;;;;;;;;;;26.10;44.30;;;20.29;53.19;94721.22;4986864;28;20380;-48
2023/08/03 07:13:01;;;;;;;;;;;26.20;44.10;;;20.60;53.61;94722.41;4988387;28;20432;-49
2023/08/03 07:15:27;;;;;;;;;;;26.40;44.00;;;20.65;53.39;94727.53;4988463;28;19984;-51
2023/08/03 07:17:52;;;;;;;;;;;26.50;43.90;;;20.93;53.76;94732.84;4980761;28;19910;-51
2023/08/03 07:20:18;;;;;;;;;;;26.60;43.80;;;20.77;52.24;94730.16;4992282;28;20008;-52
2023/08/03 07:22:48;;;;;;;;;;;26.70;43.20;;;21.11;50.97;94714.31;4980032;28;19909;-48
2023/08/03 07:25:14;;;;;;;;;;;26.90;43.80;;;21.22;50.78;94716.16;4993439;28;19917;-51
2023/08/03 07:27:41;;;;;;;;;;;27.10;43.00;;;21.33;49.46;94726.41;4984928;28;19909;-48
2023/08/03 07:30:08;;;;;;;;;;;27.30;42.70;;;21.24;49.54;94723.91;4973485;28;20289;-48
2023/08/03 07:32:35;;;;;;;;;;;27.40;41.70;;;21.60;50.78;94732.84;4990429;28;19913;-49
2023/08/03 07:35:01;;;;;;;;;;;27.50;41.60;;;21.61;49.21;94720.84;4993074;28;19909;-49
2023/08/03 07:37:27;;;;;;;;;;;27.70;41.20;;;21.62;48.23;94725.13;4992961;28;19917;-51
2023/08/03 07:39:53;;;;;;;;;;;27.80;40.90;;;21.56;49.79;94740.09;4979634;28;19910;-52
2023/08/03 07:42:18;;;;;;;;;;;27.90;40.10;;;21.95;49.87;94740.91;4992352;28;20367;-48
2023/08/03 07:44:44;;;;;;;;;;;28.00;40.40;;;21.56;49.60;94729.25;4989447;28;19909;-51
2023/08/03 07:47:10;;;;;;;;;;;28.10;39.50;;;21.55;49.17;94717.63;4987713;28;19913;-49
2023/08/03 07:49:36;;;;;;;;;;;28.20;39.50;;;21.82;48.92;94744.91;4972920;28;19914;-53
2023/08/03 07:52:01;;;;;;;;;;;28.30;39.50;;;21.80;47.95;94731.69;4992858;28;19943;-48
2023/08/03 07:54:27;;;;;;;;;;;28.30;39.00;;;21.97;47.28;94737.81;4992614;28;19952;-48
2023/08/03 07:56:53;;;;;;;;;;;28.40;38.70;;;22.20;48.26;94732.50;4981585;28;19916;-50
2023/08/03 07:59:19;;;;;;;;;;;28.50;38.70;;;22.40;45.70;94737.53;4973120;28;19917;-52
2023/08/03 08:01:45;;;;;;;;;;;28.60;38.80;;;22.34;48.02;94744.41;4973429;28;20372;-50
2023/08/03 08:04:11;;;;;;;;;;;28.70;38.50;;;22.51;47.12;94743.16;4981216;28;19909;-47
2023/08/03 08:06:37;;;;;;;;;;;28.80;38.40;;;22.84;49.25;94747.19;4990890;28;19955;-47
2023/08/03 08:09:03;;;;;;;;;;;28.90;38.30;;;22.97;47.73;94754.03;4991394;28;20410;-52
2023/08/03 08:11:29;;;;;;;;;;;29.10;38.20;;;22.81;45.94;94745.19;4979163;28;19909;-47
2023/08/03 08:13:59;;;;;;;;;;;29.20;38.00;;;22.55;46.02;94751.34;4974906;28;19921;-51
2023/08/03 08:16:25;;;;;;;;;;;29.30;37.20;;;22.67;47.51;94744.97;4991299;28;19945;-51
2023/08/03 08:18:51;;;;;;;;;;;29.30;36.90;;;22.59;46.03;94750.28;4988274;28;19913;-50
2023/08/03 08:21:17;;;;;;;;;;;29.40;36.80;;;22.66;45.08;94741.47;4990949;28;19936;-47
2023/08/03 08:23:43;;;;;;;;;;;29.40;36.60;;;22.82;44.08;94736.69;4990469;28;19924;-50
2023/08/03 08:26:15;;;;;;;;;;;29.50;36.70;;;22.72;45.71;94734.59;4989688;28;19913;-54
2023/08/03 08:28:42;;;;;;;;;;;29.50;35.90;;;23.20;44.11;94729.56;4980748;28;20039;-49
2023/08/03 08:31:08;;;;;;;;;;;29.60;36.40;;;23.08;44.66;94737.91;4992506;28;19909;-52
2023/08/03 08:33:34;;;;;;;;;;;29.70;35.90;;;23.45;44.56;94740.78;4983263;28;19992;-51
2023/08/03 08:36:01;;;;;;;;;;;29.90;36.00;;;23.57;43.04;94737.06;4983607;28;20025;-46
2023/08/03 08:38:26;;;;;;;;;;;30.00;35.90;;;23.81;44.49;94735.06;4991668;28;19917;-46
2023/08/03 08:40:52;;;;;;;;;;;30.20;35.90;;;24.31;42.98;94732.91;4991729;28;19913;-51
2023/08/03 08:43:19;;;;;;;;;;;30.50;35.90;;;24.58;42.21;94734.38;4992217;28;19910;-46
2023/08/03 08:45:45;;;;;;;;;;;30.70;36.40;;;24.57;39.81;94737.47;4991279;28;19955;-46
2023/08/03 08:48:11;;;;;;;;;;;30.90;35.30;;;24.02;40.16;94738.81;4992712;28;20327;-50
2023/08/03 08:50:37;;;;;;;;;;;31.10;34.20;;;23.62;42.14;94749.53;4992849;28;19945;-49
2023/08/03 08:53:03;;;;;;;;;;;31.10;33.20;;;23.65;41.93;94748.81;4985122;28;19917;-49
2023/08/03 08:55:30;;;;;;;;;;;31.00;33.00;;;23.76;41.52;94750.56;4980709;28;19988;-54
2023/08/03 08:57:58;;;;;;;;;;;30.90;32.70;;;24.17;41.14;94758.03;4994896;28;19917;-46
2023/08/03 09:00:26;;;;;;;;;;;31.00;33.10;;;23.62;41.28;94753.03;4993011;28;20011;-51
2023/08/03 09:03:00;;;;;;;;;;;30.80;33.60;;;23.56;42.43;94755.28;4984587;28;19933;-53
2023/08/03 09:05:28;;;;;;;;;;;30.70;32.80;;;23.51;41.17;94758.34;4981375;28;19932;-50
2023/08/03 09:08:07;;;;;;;;;;;30.70;32.60;;;23.41;43.05;94769.84;4992565;28;19917;-51
2023/08/03 09:10:52;;;;;;;;;;;30.70;32.20;;;22.99;43.05;94757.16;4986219;28;19924;-52
2023/08/03 09:13:31;;;;;;;;;;;30.30;32.60;;;23.40;43.45;94781.84;4995708;28;19909;-48
2023/08/03 09:15:58;;;;;;;;;;;30.30;32.80;;;23.50;41.67;94759.50;4994709;28;19940;-48
2023/08/03 09:18:27;;;;;;;;;;;30.50;32.90;;;23.88;40.86;94765.84;4995386;28;20000;-50
2023/08/03 09:21:09;;;;;;;;;;;30.70;32.60;;;23.66;43.42;94775.63;4985451;28;20369;-51
2023/08/03 09:23:36;;;;;;;;;;;30.70;32.70;;;23.47;41.92;94770.28;4980164;28;20299;-50
2023/08/03 09:26:03;;;;;;;;;;;30.40;32.90;;;23.74;44.29;94773.81;4985912;28;19913;-50
2023/08/03 09:28:43;;;;;;;;;;;30.50;32.80;;;24.03;42.47;94761.34;5004881;28;20353;-51
2023/08/03 09:31:11;;;;;;;;;;;30.60;33.10;;;24.07;42.94;94775.00;4989232;28;19913;-51
2023/08/03 09:33:37;;;;;;;;;;;30.50;34.20;;;23.94;43.59;94777.97;4987543;28;19909;-50
2023/08/03 09:36:13;;;;;;;;;;;30.40;33.30;;;24.04;42.15;94764.84;4988669;28;19917;-48
2023/08/03 09:38:40;;;;;;;;;;;30.50;33.10;;;23.78;41.64;94777.34;4983304;28;19960;-48
2023/08/03 09:41:08;;;;;;;;;;;30.40;33.10;;;23.87;42.65;94779.81;4994956;28;20451;-53
2023/08/03 09:43:34;;;;;;;;;;;30.50;32.60;;;23.58;41.28;94784.81;4994960;28;19916;-50
2023/08/03 09:46:01;;;;;;;;;;;30.30;32.60;;;23.02;41.47;94786.31;4991972;28;20676;-51
2023/08/03 09:48:27;;;;;;;;;;;30.20;32.20;;;23.54;42.32;94794.88;4975307;28;19917;-49
2023/08/03 09:50:58;;;;;;;;;;;30.20;32.20;;;24.16;41.78;94778.22;4977779;28;19910;-56
2023/08/03 09:53:30;;;;;;;;;;;30.40;32.50;;;24.09;40.26;94780.84;4994843;28;19956;-53
2023/08/03 09:56:00;;;;;;;;;;;30.70;32.30;;;23.75;40.55;94765.31;4992539;28;19941;-55
2023/08/03 09:58:52;;;;;;;;;;;30.80;31.90;;;24.43;40.69;94787.88;4994601;28;19909;-52
2023/08/03 10:01:24;;;;;;;;;;;30.90;32.70;;;24.84;39.78;94781.69;4992211;28;19913;-53
2023/08/03 10:03:59;;;;;;;;;;;31.20;32.00;;;24.90;40.84;94783.69;4975285;28;19948;-47
2023/08/03 10:06:36;;;;;;;;;;;31.60;31.70;;;24.73;41.57;94778.09;4974190;28;20028;-52
2023/08/03 10:09:12;;;;;;;;;;;31.60;31.40;;;24.89;41.14;94779.41;4985487;28;19913;-52
2023/08/03 10:11:52;;;;;;;;;;;31.80;31.40;;;24.99;38.39;94771.69;4982057;28;19910;-54
2023/08/03 10:14:30;;;;;;;;;;;31.80;31.40;;;24.63;39.11;94774.91;4990094;28;19910;-50
2023/08/03 10:17:00;;;;;;;;;;;31.80;30.90;;;25.11;39.18;94769.47;4978629;28;19980;-49
2023/08/03 10:19:28;;;;;;;;;;;32.00;31.00;;;24.61;39.19;94769.03;4983418;28;19999;-52
2023/08/03 10:21:54;;;;;;;;;;;32.20;30.20;;;24.97;38.75;94774.78;4992158;28;19913;-52
2023/08/03 10:24:20;;;;;;;;;;;32.40;30.10;;;24.84;39.57;94771.56;4982702;28;19917;-51
2023/08/03 10:27:14;;;;;;;;;;;32.40;29.90;;;25.14;38.59;94784.31;4979276;28;19910;-52
2023/08/03 10:29:57;;;;;;;;;;;32.70;29.80;;;25.65;38.70;94778.03;4975583;28;19916;-50
2023/08/03 10:32:28;;;;;;;;;;;32.90;29.80;;;25.28;38.78;94765.34;4993374;28;20012;-50
2023/08/03 10:35:01;;;;;;;;;;;33.10;29.40;;;25.24;37.61;94761.81;4993888;28;19952;-50
2023/08/03 10:37:27;;;;;;;;;;;33.10;29.30;;;25.14;38.25;94763.28;4994057;28;19917;-47
2023/08/03 10:39:56;;;;;;;;;;;33.10;29.00;;;25.57;37.97;94768.25;4991554;28;19910;-47
2023/08/03 10:42:27;;;;;;;;;;;33.10;29.10;;;25.87;38.03;94762.59;4982680;28;19968;-50
2023/08/03 10:45:15;;;;;;;;;;;33.30;29.30;;;25.98;36.28;94751.72;4983206;28;19914;-49
2023/08/03 10:47:40;;;;;;;;;;;33.30;29.50;;;25.87;37.00;94759.09;4993812;28;19913;-47
2023/08/03 10:50:06;;;;;;;;;;;33.00;29.50;;;25.23;38.38;94759.44;4989370;28;19916;-49
2023/08/03 10:52:33;;;;;;;;;;;32.80;29.20;;;25.76;37.72;94753.56;4973946;28;19921;-48
2023/08/03 10:55:26;;;;;;;;;;;32.80;29.30;;;26.11;36.43;94749.47;4982404;28;19913;-48
2023/08/03 10:57:56;;;;;;;;;;;33.00;29.30;;;26.05;37.03;94766.22;4992499;28;19921;-53
2023/08/03 11:00:22;;;;;;;;;;;33.20;29.10;;;26.26;37.29;94765.50;4993398;28;20016;-51
2023/08/03 11:02:49;;;;;;;;;;;33.30;29.00;;;26.38;35.44;94758.91;4992088;28;20044;-48
2023/08/03 11:05:15;;;;;;;;;;;33.50;28.90;;;26.86;35.97;94760.59;4993057;28;19917;-49
2023/08/03 11:07:45;;;;;;;;;;;33.70;29.00;;;26.76;34.54;94759.41;4992478;28;19962;-51
2023/08/03 11:10:16;;;;;;;;;;;33.90;28.80;;;26.22;35.11;94750.28;4992760;28;19909;-48
2023/08/03 11:12:44;;;;;;;;;;;34.10;28.30;;;26.50;35.58;94744.91;4991839;28;19948;-48
2023/08/03 11:15:16;;;;;;;;;;;34.10;28.10;;;27.02;36.06;94752.81;4992506;28;19909;-50
2023/08/03 11:17:51;;;;;;;;;;;34.10;28.20;;;27.55;34.00;94741.06;4993658;28;19909;-48